Athens, Ohio
Current Conditions -  °F | °C
As of 7:35 AM on Monday 24 Nov 2014 (Local Time) from KUNI Reporting Station
Clear Clear  
Wind Chill: 60°   Ceiling: Unl
Heat Index: 60°   Visibility: 10mi
Dew Point: 51°   Wind: 10mph
Humidity: 74%   Direction: 190°S
Pressure: 29.43"   Gusts: NA
Location:  39.33°N, 82.1°W
Report Text: KUNI 241235Z AUTO 19009KT 10SM CLR 16/11 A2943 RMK AO2 T01550108
Loading
Personal Weather Stations






























Interactive Weather Map New forecast layout! Learn more

10-Day Weather Forecast

Advertisements
Track Severe Weather on mobile